Virtual LH

Virtual LH. There's no better way to fly
Since 2013.



AIRPORT MAP

METAR AND TAF INFORMATION

METAR FOR VOBL
ADDS - METARS form results

(1128 UTC 20 June 2019)
Data provider http://aviationweather.gov/metar/data/
 
METAR text: VOBL 201100Z 25013KT 9999 SCT012 SCT018 30/17 Q1009 NOSIG
Conditions at: VOBL (BENGALURU , IN) observed 1100 UTC 20 June 2019
Temperature: 30.0°C (86°F)
Dewpoint: 17.0°C (63°F) [RH = 46%]
Pressure (altimeter): 29.79 inches Hg (1009.0 mb)
Winds: from the WSW (250 degrees) at 15 MPH (13 knots; 6.7 m/s)
Visibility: 6 or more miles (10+ km)
Ceiling: at least 12,000 feet AGL
Clouds: scattered clouds at 1200 feet AGL
scattered clouds at 1800 feet AGL
Weather: no significant weather observed at this time

METAR text: VOBL 201030Z 26013KT 220V290 9999 SCT012 SCT018 30/17 Q1009 NOSIG
Conditions at: VOBL (BENGALURU , IN) observed 1030 UTC 20 June 2019
Temperature: 30.0°C (86°F)
Dewpoint: 17.0°C (63°F) [RH = 46%]
Pressure (altimeter): 29.79 inches Hg (1009.0 mb)
Winds: from the W (260 degrees) at 15 MPH (13 knots; 6.7 m/s)
Visibility: 6 or more miles (10+ km)
Ceiling: at least 12,000 feet AGL
Clouds: scattered clouds at 1200 feet AGL
scattered clouds at 1800 feet AGL
Weather: no significant weather observed at this time

Forecast for: VOBL (BENGALURU , IN)
Text: TAF VOBL 201100Z 2012/2118 27010KT 6000 SCT012
Forecast period: 1200 UTC 20 June 2019 to 1800 UTC 21 June 2019
Forecast type: FROM: standard forecast or significant change
Winds: from the W (270 degrees) at 12 MPH (10 knots; 5.1 m/s)
Visibility: 4 miles (6 km)
Ceiling: at least 12,000 feet AGL
Clouds: scattered clouds at 1200 feet AGL
Weather: no significant weather forecast for this period
Text: TEMPO 2012/2015 4000 RA DZ SCT012 SCT020 BKN080
Forecast period: 1200 to 1500 UTC 20 June 2019
Forecast type: TEMPORARY: The following changes expected for less than half the time period
Visibility: 2.49 miles (4.01 km)
Ceiling: 8000 feet AGL
Clouds: scattered clouds at 1200 feet AGL
scattered clouds at 2000 feet AGL
broken clouds at 8000 feet AGL
Weather: RA DZ  (moderate rain, moderate drizzle)
Text: TEMPO 2100/2103 4000 BR SCT008 SCT012
Forecast period: 0000 to 0300 UTC 21 June 2019
Forecast type: TEMPORARY: The following changes expected for less than half the time period
Visibility: 2.49 miles (4.01 km)
Ceiling: at least 12,000 feet AGL
Clouds: scattered clouds at 800 feet AGL
scattered clouds at 1200 feet AGL
Weather: BR  (mist)

RUNWAY INFORMATION

Runway 09 Runway length 13123 ft Runway width 148 ft
Runway elevation 3001 ft Runway displaced threshold 0 ft Runway heading 92
Runway 27 Runway length 13123 ft Runway width 148 ft
Runway elevation 2917 ft Runway displaced threshold 0 ft Runway heading 272

AIRPORT FREQUENCIES

Type APP Name Frequency 121.25 MHZ
Type ATIS Name Frequency 128.675 MHZ
Type DELIVERY Name Frequency 121.82 MHZ
Type SMC Name Frequency 121.65 MHZ
Type TOWER Name Frequency 124.35 MHZ

AIRPORT NEAR NAVIGATION AIDS